Kirley, South Dakota
Current Conditions -  °F | °C
As of 11:55 AM on Monday 20 Oct 2014 (Local Time) from KPHP Reporting Station
Clear Clear  
Wind Chill: 72°   Ceiling: Unl
Heat Index: 72°   Visibility: 10mi
Dew Point: 43°   Wind: 14mph
Humidity: 35%   Direction: 140°SE
Pressure: 30.03"   Gusts: 22mph
Location:  44.3169°N, 101.368°W
Report Text: KPHP 201755Z AUTO 14012G19KT 10SM CLR 22/06 A3003 RMK AO2 SLP163 T02220061 10222 20000 58017
Loading
Personal Weather Stations






























Interactive Weather Map
Tropical Storm Tracking
New forecast layout! Learn more

10-Day Weather Forecast

Advertisements
Track Severe Weather on mobile